Currently 91°F in Perris, California, USA
91°F
94°F / 58°F
1 mph W
0.00"
Friday, August 23, 2019 5:03 PM PDT

Perris, California Weather Summary
Last 36 Hours

Temperature Winds Hourly Humidity Dewpoint
Time Report Norm Report Norm Max Gusts Precip. Rpt. Norm Rpt. Norm Pressure
1Fri 05:03 PM  91.2°F  91°F  1 mph W  7 mph  11 mph  0.00"  32%  28%  56°F  53°F  29.84"
Fri 05:00 PM  91.2°F  91°F  5 mph SW  7 mph  13 mph  0.00"  32%  28%  56°F  53°F  29.84"
Fri 04:00 PM  91.9°F  93°F  6 mph S  7 mph  14 mph  0.00"  24%  27%  49°F  53°F  29.84"
Fri 03:00 PM  92.7°F  93°F  1 mph S  6 mph  12 mph  0.00"  22%  26%  47°F  52°F  29.86"
2Fri 02:24 PM  94.1°F  93°F  6 mph S  6 mph  9 mph  ----  25%  26%  52°F  52°F  29.88"
Fri 02:00 PM  91.0°F  93°F  calm  6 mph  11 mph  0.00"  22%  27%  46°F  52°F  29.89"
Fri 01:00 PM  87.9°F  92°F  4 mph NW  5 mph  11 mph  0.00"  38%  27%  58°F  52°F  29.90"
Fri 12:00 PM  81.9°F  89°F  4 mph SW  3 mph  9 mph  0.00"  42%  31%  56°F  53°F  29.92"
Fri 11:00 AM  73.5°F  85°F  3 mph SW  3 mph  8 mph  0.00"  68%  38%  62°F  55°F  29.94"
Fri 10:00 AM  65.5°F  80°F  2 mph NW  2 mph  7 mph  0.00"  93%  48%  63°F  58°F  29.95"
Fri 09:00 AM  61.4°F  75°F  2 mph S  1 mph  5 mph  0.00"  97%  60%  60°F  59°F  29.94"
Fri 08:00 AM  60.5°F  69°F  calm  1 mph  4 mph  0.00"  97%  70%  60°F  59°F  29.93"
3Fri 07:18 AM  57.9°F  66°F  2 mph SE  1 mph  4 mph  ----  97%  73%  57°F  57°F  29.92"
Fri 07:00 AM  58.7°F  66°F  calm  1 mph  none  0.00"  97%  73%  58°F  57°F  29.91"
Fri 06:00 AM  59.7°F  66°F  calm  1 mph  none  0.00"  96%  72%  59°F  57°F  29.90"
Fri 05:00 AM  60.7°F  67°F  calm  1 mph  none  0.00"  95%  70%  59°F  57°F  29.88"
Fri 04:00 AM  61.7°F  68°F  calm  1 mph  3 mph  0.00"  95%  69%  60°F  57°F  29.86"
Fri 03:00 AM  62.7°F  69°F  calm  1 mph  2 mph  0.00"  92%  67%  60°F  57°F  29.86"
Fri 02:00 AM  64.0°F  70°F  2 mph S  1 mph  3 mph  0.00"  90%  65%  61°F  57°F  29.85"
Fri 01:00 AM  64.5°F  71°F  calm  1 mph  3 mph  0.00"  88%  62%  61°F  57°F  29.85"
Fri 12:00 AM  66.1°F  72°F  1 mph NW  2 mph  6 mph  0.00"  86%  59%  62°F  57°F  29.85"
Thu 11:00 PM  67.3°F  74°F  calm  2 mph  8 mph  0.00"  82%  56%  61°F  56°F  29.84"
Thu 10:00 PM  69.8°F  75°F  4 mph NW  2 mph  9 mph  0.00"  76%  52%  62°F  56°F  29.84"
Thu 09:00 PM  73.7°F  78°F  4 mph W  3 mph  5 mph  0.00"  63%  47%  60°F  55°F  29.83"
Thu 08:00 PM  75.6°F  81°F  1 mph SW  4 mph  9 mph  0.00"  46%  42%  52°F  54°F  29.82"
Thu 07:00 PM  80.1°F  85°F  5 mph S  6 mph  15 mph  0.00"  32%  35%  46°F  53°F  29.80"
Thu 06:00 PM  84.8°F  88°F  6 mph S  7 mph  18 mph  0.00"  29%  31%  48°F  53°F  29.79"
Thu 05:00 PM  90.1°F  91°F  13 mph SE  7 mph  16 mph  0.00"  24%  29%  48°F  53°F  29.77"
Thu 04:00 PM  95.9°F  93°F  5 mph NW  7 mph  15 mph  0.00"  24%  27%  52°F  53°F  29.76"
Thu 03:00 PM  93.9°F  93°F  10 mph NW  6 mph  16 mph  0.00"  27%  27%  53°F  53°F  29.78"
Thu 02:00 PM  94.7°F  92°F  8 mph W  6 mph  14 mph  0.00"  23%  27%  50°F  53°F  29.79"
Thu 01:00 PM  94.4°F  91°F  1 mph W  5 mph  12 mph  0.00"  24%  27%  51°F  52°F  29.81"
Thu 12:00 PM  91.9°F  89°F  calm  3 mph  13 mph  0.00"  20%  31%  44°F  53°F  29.83"
Thu 11:00 AM  88.9°F  85°F  3 mph S  3 mph  7 mph  0.00"  23%  38%  45°F  56°F  29.84"
Thu 10:00 AM  80.5°F  80°F  2 mph S  2 mph  5 mph  0.00"  36%  49%  50°F  58°F  29.85"
Thu 09:00 AM  75.7°F  74°F  2 mph S  1 mph  6 mph  0.00"  48%  60%  54°F  59°F  29.85"
Thu 08:00 AM  66.8°F  69°F  1 mph S  1 mph  4 mph  0.00"  67%  70%  55°F  59°F  29.85"
Thu 07:00 AM  64.8°F  66°F  calm  1 mph  none  0.00"  71%  74%  55°F  57°F  29.83"
Thu 06:00 AM  62.9°F  66°F  calm  1 mph  none  0.00"  73%  73%  54°F  57°F  29.82"

  1. Current weather data. No green row appears if the current weather data is also the high or low for the current day.
  2. High temperature for the current day.
  3. Low temperature for the current day.

The Perris, California weather pages are a service of WeatherCurrents. Perris is located in Southern California's Inland Empire, south of Riverside and north of Sun City, along the Interstate 215 freeway.
Copyright ©2019  WeatherCurrents. All rights reserved. - Submit questions and comments - Privacy Policy

This page automatically refreshes every 10 minutes.